»·PEaware :: N7375Q KTSP-KUDD

N7375Q :: KTSP-KUDD

FLIGHT INFORMATION

Flight Status: Arrived
Operator: Privately registered:
United States
More flights under this callsign
Pilot: Ion I. (24133)
Aircraft: SOCATA TBM-900
(TBM9)
More flights by this aircraft type
Origin: KTSP Tehachapi Mun
United States
Destination: KUDD Bermuda Dunes
United States
More flights between these airports :: More routes between these airports
Route: ROSIE SIZLR SIZLR3
File this flight plan on PilotEdge
Remarks:
Altitude:
(Current/Filed)
21,000ft
Speed:
(Current/Filed)
250kts
Departed: 30-Jul-20 04:49 PM
Arrived: 30-Jul-20 05:29 PM
Distance/Time
Traveled:
136nm/0:39
Distance/Time
To Go:
Arrived

Flight Plot

Page will automatically refresh every two minutes.

Flight plan parsing failed; only flown route is shown


Map Options




Map Legend


Flown Route
Filed Route
Departure Airport
Arrival Airport
Navaid (VOR, NDB)
Fix

Horizontal Profiles

Position Reports

Time Latitude Longitude Heading Altitude Ground
Speed
30-Jul-20 16:40 35.133810 -118.439367 302 3983ft 0kts
30-Jul-20 16:41 35.133810 -118.439367 302 3983ft 0kts
30-Jul-20 16:42 35.133810 -118.439367 302 3983ft 0kts
30-Jul-20 16:43 35.133810 -118.439367 302 3983ft 0kts
30-Jul-20 16:44 35.133810 -118.439367 302 3983ft 0kts
30-Jul-20 16:45 35.134086 -118.439289 46 3983ft 5kts
30-Jul-20 16:46 35.132959 -118.436403 125 3983ft 15kts
30-Jul-20 16:47 35.131654 -118.433953 69 3983ft 0kts
30-Jul-20 16:48 35.134229 -118.437869 304 3983ft 80kts
30-Jul-20 16:49 35.153167 -118.465943 305 5469ft 115kts
30-Jul-20 16:50 35.148723 -118.498490 214 7667ft 124kts
30-Jul-20 16:51 35.117130 -118.494798 144 9994ft 135kts
30-Jul-20 16:52 35.088568 -118.463713 144 12087ft 148kts
30-Jul-20 16:53 35.051863 -118.423694 141 13184ft 215kts
30-Jul-20 16:54 35.001762 -118.368878 141 13149ft 258kts
30-Jul-20 16:55 34.950123 -118.312596 141 14312ft 235kts
30-Jul-20 16:56 34.902850 -118.261213 141 15742ft 221kts
30-Jul-20 16:57 34.868879 -118.224328 140 16840ft 214kts
30-Jul-20 16:58 34.820169 -118.184932 152 18318ft 210kts
30-Jul-20 16:59 34.768881 -118.150752 153 19811ft 212kts
30-Jul-20 17:00 34.715970 -118.115559 153 21042ft 231kts
30-Jul-20 17:01 34.653707 -118.074186 152 21031ft 271kts
30-Jul-20 17:02 34.585750 -118.028778 147 21051ft 283kts
30-Jul-20 17:03 34.546413 -117.944334 118 21113ft 291kts
30-Jul-20 17:04 34.510355 -117.856258 118 21181ft 291kts
30-Jul-20 17:05 34.474161 -117.768098 118 21201ft 293kts
30-Jul-20 17:06 34.437801 -117.679540 118 21202ft 293kts
30-Jul-20 17:07 34.401526 -117.590739 118 21201ft 294kts
30-Jul-20 17:08 34.364943 -117.501436 117 20561ft 314kts
30-Jul-20 17:09 34.324769 -117.403552 118 17887ft 329kts
30-Jul-20 17:10 34.283041 -117.306682 122 16125ft 303kts
30-Jul-20 17:11 34.243674 -117.222262 122 16223ft 275kts
30-Jul-20 17:12 34.206130 -117.142193 122 16186ft 273kts
30-Jul-20 17:13 34.168605 -117.062328 122 16115ft 273kts
30-Jul-20 17:14 34.130718 -116.981863 122 16032ft 276kts
30-Jul-20 17:15 34.092489 -116.900333 121 15737ft 285kts
30-Jul-20 17:16 34.051132 -116.811911 120 13941ft 312kts
30-Jul-20 17:17 34.018329 -116.717274 108 12597ft 306kts
30-Jul-20 17:18 33.992412 -116.620197 108 10598ft 303kts
30-Jul-20 17:19 33.964128 -116.535082 141 10257ft 277kts
30-Jul-20 17:20 33.904028 -116.468523 137 7814ft 290kts
30-Jul-20 17:21 33.851034 -116.400361 126 5361ft 267kts
30-Jul-20 17:22 33.811169 -116.330844 126 2664ft 245kts
30-Jul-20 17:23 33.776734 -116.269065 113 1079ft 170kts
30-Jul-20 17:24 33.762301 -116.226937 114 1063ft 112kts
30-Jul-20 17:25 33.739410 -116.215989 214 750ft 107kts
30-Jul-20 17:26 33.736715 -116.246055 295 437ft 93kts
30-Jul-20 17:27 33.747300 -116.272004 295 67ft 65kts
30-Jul-20 17:28 33.748727 -116.276783 117 67ft 6kts
30-Jul-20 17:29 33.747343 -116.273437 114 67ft 14kts
30-Jul-20 17:30 33.746173 -116.271255 93 67ft 0kts
30-Jul-20 17:31 33.746173 -116.271255 93 67ft 0kts
30-Jul-20 17:32 33.746173 -116.271255 93 67ft 0kts
30-Jul-20 17:33 33.746173 -116.271255 93 67ft 0kts
30-Jul-20 17:34 33.746173 -116.271255 93 67ft 0kts
30-Jul-20 17:35 33.746173 -116.271255 93 67ft 0kts
30-Jul-20 17:36 33.746173 -116.271255 93 67ft 0kts
30-Jul-20 17:37 33.746173 -116.271255 93 67ft 0kts
30-Jul-20 17:38 33.746173 -116.271255 93 67ft 0kts
30-Jul-20 17:39 33.746173 -116.271255 93 67ft 0kts
30-Jul-20 17:40 33.746173 -116.271255 93 67ft 0kts
30-Jul-20 17:41 33.746173 -116.271255 93 67ft 0kts
30-Jul-20 17:42 33.746173 -116.271255 93 67ft 0kts

Navigation Log

Ident Type
Flight plan parsing failed, navigation log unavailable